sensor_id;sensor_type;location;lat;lon;timestamp;P1;durP1;ratioP1;P2;durP2;ratioP2
1577;SDS011;57623;53.608;10.004;2024-01-10T00:02:20;28.90;;;18.93;;
1577;SDS011;57623;53.608;10.004;2024-01-10T00:04:49;26.20;;;18.97;;
1577;SDS011;57623;53.608;10.004;2024-01-10T00:07:17;29.83;;;18.93;;
1577;SDS011;57623;53.608;10.004;2024-01-10T00:09:45;26.03;;;17.23;;
1577;SDS011;57623;53.608;10.004;2024-01-10T00:12:14;23.23;;;15.40;;
1577;SDS011;57623;53.608;10.004;2024-01-10T00:14:42;24.50;;;16.17;;
1577;SDS011;57623;53.608;10.004;2024-01-10T00:17:10;27.03;;;15.33;;
1577;SDS011;57623;53.608;10.004;2024-01-10T00:19:39;21.50;;;15.23;;
1577;SDS011;57623;53.608;10.004;2024-01-10T00:22:07;32.53;;;16.60;;
1577;SDS011;57623;53.608;10.004;2024-01-10T00:24:35;29.27;;;15.77;;
1577;SDS011;57623;53.608;10.004;2024-01-10T00:27:03;24.93;;;15.13;;
1577;SDS011;57623;53.608;10.004;2024-01-10T00:29:33;29.83;;;16.80;;
1577;SDS011;57623;53.608;10.004;2024-01-10T00:32:01;26.60;;;15.80;;
1577;SDS011;57623;53.608;10.004;2024-01-10T00:34:29;25.60;;;15.57;;
1577;SDS011;57623;53.608;10.004;2024-01-10T00:36:57;23.80;;;15.00;;
1577;SDS011;57623;53.608;10.004;2024-01-10T00:39:25;25.73;;;14.67;;
1577;SDS011;57623;53.608;10.004;2024-01-10T00:41:53;26.10;;;15.10;;
1577;SDS011;57623;53.608;10.004;2024-01-10T00:44:21;21.43;;;13.53;;
1577;SDS011;57623;53.608;10.004;2024-01-10T00:46:51;25.87;;;14.70;;
1577;SDS011;57623;53.608;10.004;2024-01-10T00:49:19;25.83;;;14.10;;
1577;SDS011;57623;53.608;10.004;2024-01-10T00:51:47;22.23;;;13.87;;
1577;SDS011;57623;53.608;10.004;2024-01-10T00:54:15;22.17;;;14.07;;
1577;SDS011;57623;53.608;10.004;2024-01-10T00:56:43;19.63;;;12.83;;
1577;SDS011;57623;53.608;10.004;2024-01-10T00:59:11;24.27;;;14.60;;
1577;SDS011;57623;53.608;10.004;2024-01-10T01:01:39;24.20;;;13.97;;
1577;SDS011;57623;53.608;10.004;2024-01-10T01:04:09;27.03;;;15.07;;
1577;SDS011;57623;53.608;10.004;2024-01-10T01:06:37;22.43;;;15.13;;
1577;SDS011;57623;53.608;10.004;2024-01-10T01:09:05;24.80;;;13.30;;
1577;SDS011;57623;53.608;10.004;2024-01-10T01:11:33;19.90;;;13.80;;
1577;SDS011;57623;53.608;10.004;2024-01-10T01:14:01;22.57;;;14.33;;
1577;SDS011;57623;53.608;10.004;2024-01-10T01:16:29;24.60;;;13.90;;
1577;SDS011;57623;53.608;10.004;2024-01-10T01:18:57;22.90;;;14.63;;
1577;SDS011;57623;53.608;10.004;2024-01-10T01:21:26;19.53;;;13.40;;
1577;SDS011;57623;53.608;10.004;2024-01-10T01:23:54;21.27;;;13.80;;
1577;SDS011;57623;53.608;10.004;2024-01-10T01:26:22;21.93;;;13.13;;
1577;SDS011;57623;53.608;10.004;2024-01-10T01:28:50;20.03;;;13.13;;
1577;SDS011;57623;53.608;10.004;2024-01-10T01:31:19;22.23;;;13.40;;
1577;SDS011;57623;53.608;10.004;2024-01-10T01:33:47;24.30;;;13.37;;
1577;SDS011;57623;53.608;10.004;2024-01-10T01:36:15;21.43;;;14.13;;
1577;SDS011;57623;53.608;10.004;2024-01-10T01:38:44;22.73;;;14.00;;
1577;SDS011;57623;53.608;10.004;2024-01-10T01:41:12;24.10;;;15.40;;
1577;SDS011;57623;53.608;10.004;2024-01-10T01:43:42;22.43;;;14.77;;
1577;SDS011;57623;53.608;10.004;2024-01-10T01:46:10;24.40;;;14.40;;
1577;SDS011;57623;53.608;10.004;2024-01-10T01:48:39;27.80;;;15.77;;
1577;SDS011;57623;53.608;10.004;2024-01-10T01:51:08;22.93;;;13.87;;
1577;SDS011;57623;53.608;10.004;2024-01-10T01:53:38;23.27;;;14.47;;
1577;SDS011;57623;53.608;10.004;2024-01-10T01:56:09;22.93;;;14.70;;
1577;SDS011;57623;53.608;10.004;2024-01-10T01:58:37;21.43;;;13.63;;
1577;SDS011;57623;53.608;10.004;2024-01-10T02:01:07;21.90;;;13.93;;
1577;SDS011;57623;53.608;10.004;2024-01-10T02:03:35;19.97;;;13.10;;
1577;SDS011;57623;53.608;10.004;2024-01-10T02:06:03;18.87;;;12.07;;
1577;SDS011;57623;53.608;10.004;2024-01-10T02:08:32;19.70;;;12.43;;
1577;SDS011;57623;53.608;10.004;2024-01-10T02:11:01;17.83;;;11.47;;
1577;SDS011;57623;53.608;10.004;2024-01-10T02:13:31;21.30;;;13.30;;
1577;SDS011;57623;53.608;10.004;2024-01-10T02:16:00;20.10;;;11.63;;
1577;SDS011;57623;53.608;10.004;2024-01-10T02:18:29;20.33;;;13.10;;
1577;SDS011;57623;53.608;10.004;2024-01-10T02:20:57;16.40;;;11.63;;
1577;SDS011;57623;53.608;10.004;2024-01-10T02:23:25;17.80;;;12.57;;
1577;SDS011;57623;53.608;10.004;2024-01-10T02:25:55;20.10;;;12.10;;
1577;SDS011;57623;53.608;10.004;2024-01-10T02:28:23;20.63;;;12.53;;
1577;SDS011;57623;53.608;10.004;2024-01-10T02:30:52;17.50;;;12.03;;
1577;SDS011;57623;53.608;10.004;2024-01-10T02:33:21;16.40;;;10.87;;
1577;SDS011;57623;53.608;10.004;2024-01-10T02:35:49;16.17;;;10.47;;
1577;SDS011;57623;53.608;10.004;2024-01-10T02:38:17;17.83;;;12.13;;
1577;SDS011;57623;53.608;10.004;2024-01-10T02:40:47;17.40;;;11.10;;
1577;SDS011;57623;53.608;10.004;2024-01-10T02:43:17;14.27;;;10.57;;
1577;SDS011;57623;53.608;10.004;2024-01-10T02:45:45;16.43;;;10.90;;
1577;SDS011;57623;53.608;10.004;2024-01-10T02:48:13;17.13;;;11.67;;
1577;SDS011;57623;53.608;10.004;2024-01-10T02:50:41;17.83;;;11.30;;
1577;SDS011;57623;53.608;10.004;2024-01-10T02:53:09;16.57;;;12.00;;
1577;SDS011;57623;53.608;10.004;2024-01-10T02:55:37;16.70;;;11.33;;
1577;SDS011;57623;53.608;10.004;2024-01-10T02:58:05;18.17;;;12.80;;
1577;SDS011;57623;53.608;10.004;2024-01-10T03:00:34;19.17;;;10.37;;
1577;SDS011;57623;53.608;10.004;2024-01-10T03:03:04;16.10;;;11.63;;
1577;SDS011;57623;53.608;10.004;2024-01-10T03:05:32;16.97;;;11.27;;
1577;SDS011;57623;53.608;10.004;2024-01-10T03:08:00;18.90;;;11.30;;
1577;SDS011;57623;53.608;10.004;2024-01-10T03:10:28;18.03;;;11.80;;
1577;SDS011;57623;53.608;10.004;2024-01-10T03:12:56;16.47;;;12.10;;
1577;SDS011;57623;53.608;10.004;2024-01-10T03:15:24;17.97;;;12.07;;
1577;SDS011;57623;53.608;10.004;2024-01-10T03:17:54;18.07;;;12.10;;
1577;SDS011;57623;53.608;10.004;2024-01-10T03:20:22;21.63;;;13.03;;
1577;SDS011;57623;53.608;10.004;2024-01-10T03:22:50;17.13;;;11.60;;
1577;SDS011;57623;53.608;10.004;2024-01-10T03:25:18;17.93;;;11.83;;
1577;SDS011;57623;53.608;10.004;2024-01-10T03:27:46;19.57;;;12.17;;
1577;SDS011;57623;53.608;10.004;2024-01-10T03:30:14;17.93;;;11.60;;
1577;SDS011;57623;53.608;10.004;2024-01-10T03:32:45;16.20;;;11.23;;
1577;SDS011;57623;53.608;10.004;2024-01-10T03:35:14;16.37;;;11.40;;
1577;SDS011;57623;53.608;10.004;2024-01-10T03:37:42;20.37;;;12.43;;
1577;SDS011;57623;53.608;10.004;2024-01-10T03:40:10;20.50;;;13.10;;
1577;SDS011;57623;53.608;10.004;2024-01-10T03:42:39;19.87;;;13.67;;
1577;SDS011;57623;53.608;10.004;2024-01-10T03:45:07;23.50;;;12.83;;
1577;SDS011;57623;53.608;10.004;2024-01-10T03:47:35;20.13;;;13.23;;
1577;SDS011;57623;53.608;10.004;2024-01-10T03:50:03;24.93;;;14.77;;
1577;SDS011;57623;53.608;10.004;2024-01-10T03:52:34;19.40;;;13.90;;
1577;SDS011;57623;53.608;10.004;2024-01-10T03:55:02;23.37;;;14.60;;
1577;SDS011;57623;53.608;10.004;2024-01-10T03:57:31;23.53;;;14.63;;
1577;SDS011;57623;53.608;10.004;2024-01-10T03:59:59;23.13;;;15.17;;
1577;SDS011;57623;53.608;10.004;2024-01-10T04:02:27;25.63;;;16.27;;
1577;SDS011;57623;53.608;10.004;2024-01-10T04:04:55;25.77;;;15.93;;
1577;SDS011;57623;53.608;10.004;2024-01-10T04:07:23;25.47;;;16.03;;
1577;SDS011;57623;53.608;10.004;2024-01-10T04:09:52;26.93;;;16.83;;
1577;SDS011;57623;53.608;10.004;2024-01-10T04:12:20;23.30;;;15.07;;
1577;SDS011;57623;53.608;10.004;2024-01-10T04:14:48;24.17;;;16.30;;
1577;SDS011;57623;53.608;10.004;2024-01-10T04:17:16;26.87;;;14.73;;
1577;SDS011;57623;53.608;10.004;2024-01-10T04:19:44;22.57;;;15.43;;
1577;SDS011;57623;53.608;10.004;2024-01-10T04:22:12;27.93;;;15.30;;
1577;SDS011;57623;53.608;10.004;2024-01-10T04:24:40;25.00;;;15.53;;
1577;SDS011;57623;53.608;10.004;2024-01-10T04:27:10;22.63;;;15.83;;
1577;SDS011;57623;53.608;10.004;2024-01-10T04:29:38;24.47;;;13.83;;
1577;SDS011;57623;53.608;10.004;2024-01-10T04:32:06;22.13;;;14.70;;
1577;SDS011;57623;53.608;10.004;2024-01-10T04:34:34;21.90;;;13.97;;
1577;SDS011;57623;53.608;10.004;2024-01-10T04:37:02;21.73;;;13.77;;
1577;SDS011;57623;53.608;10.004;2024-01-10T04:39:33;19.77;;;13.40;;
1577;SDS011;57623;53.608;10.004;2024-01-10T04:42:01;16.73;;;11.17;;
1577;SDS011;57623;53.608;10.004;2024-01-10T04:44:31;17.80;;;11.80;;
1577;SDS011;57623;53.608;10.004;2024-01-10T04:46:59;17.10;;;12.87;;
1577;SDS011;57623;53.608;10.004;2024-01-10T04:49:27;16.60;;;11.30;;
1577;SDS011;57623;53.608;10.004;2024-01-10T04:51:55;15.10;;;10.60;;
1577;SDS011;57623;53.608;10.004;2024-01-10T04:54:23;13.80;;;9.90;;
1577;SDS011;57623;53.608;10.004;2024-01-10T04:56:51;13.03;;;10.03;;
1577;SDS011;57623;53.608;10.004;2024-01-10T04:59:19;15.13;;;11.17;;
1577;SDS011;57623;53.608;10.004;2024-01-10T05:01:50;15.37;;;10.50;;
1577;SDS011;57623;53.608;10.004;2024-01-10T05:04:18;13.70;;;10.87;;
1577;SDS011;57623;53.608;10.004;2024-01-10T05:06:46;15.30;;;10.70;;
1577;SDS011;57623;53.608;10.004;2024-01-10T05:09:14;14.40;;;10.03;;
1577;SDS011;57623;53.608;10.004;2024-01-10T05:11:42;12.80;;;9.80;;
1577;SDS011;57623;53.608;10.004;2024-01-10T05:14:13;13.43;;;9.73;;
1577;SDS011;57623;53.608;10.004;2024-01-10T05:16:41;13.43;;;9.90;;
1577;SDS011;57623;53.608;10.004;2024-01-10T05:19:11;17.53;;;9.93;;
1577;SDS011;57623;53.608;10.004;2024-01-10T05:21:39;13.27;;;9.40;;
1577;SDS011;57623;53.608;10.004;2024-01-10T05:24:07;13.73;;;10.13;;
1577;SDS011;57623;53.608;10.004;2024-01-10T05:26:35;11.90;;;9.63;;
1577;SDS011;57623;53.608;10.004;2024-01-10T05:29:03;13.80;;;8.80;;
1577;SDS011;57623;53.608;10.004;2024-01-10T05:31:31;15.17;;;9.70;;
1577;SDS011;57623;53.608;10.004;2024-01-10T05:33:59;11.13;;;8.57;;
1577;SDS011;57623;53.608;10.004;2024-01-10T05:36:28;11.60;;;8.57;;
1577;SDS011;57623;53.608;10.004;2024-01-10T05:38:56;13.83;;;9.37;;
1577;SDS011;57623;53.608;10.004;2024-01-10T05:41:24;14.40;;;9.40;;
1577;SDS011;57623;53.608;10.004;2024-01-10T05:43:53;10.87;;;8.20;;
1577;SDS011;57623;53.608;10.004;2024-01-10T05:46:21;13.20;;;8.80;;
1577;SDS011;57623;53.608;10.004;2024-01-10T05:48:49;15.03;;;8.57;;
1577;SDS011;57623;53.608;10.004;2024-01-10T05:51:17;10.20;;;8.17;;
1577;SDS011;57623;53.608;10.004;2024-01-10T05:53:46;12.07;;;8.93;;
1577;SDS011;57623;53.608;10.004;2024-01-10T05:56:14;12.80;;;8.80;;
1577;SDS011;57623;53.608;10.004;2024-01-10T05:58:43;12.43;;;7.70;;
1577;SDS011;57623;53.608;10.004;2024-01-10T06:01:11;10.40;;;7.47;;
1577;SDS011;57623;53.608;10.004;2024-01-10T06:03:39;9.63;;;7.20;;
1577;SDS011;57623;53.608;10.004;2024-01-10T06:06:07;10.90;;;7.70;;
1577;SDS011;57623;53.608;10.004;2024-01-10T06:08:37;11.07;;;7.67;;
1577;SDS011;57623;53.608;10.004;2024-01-10T06:11:06;10.33;;;7.20;;
1577;SDS011;57623;53.608;10.004;2024-01-10T06:13:36;9.17;;;6.70;;
1577;SDS011;57623;53.608;10.004;2024-01-10T06:16:19;9.43;;;6.83;;
1577;SDS011;57623;53.608;10.004;2024-01-10T06:18:47;9.97;;;7.10;;
1577;SDS011;57623;53.608;10.004;2024-01-10T06:21:15;9.13;;;6.90;;
1577;SDS011;57623;53.608;10.004;2024-01-10T06:23:43;10.87;;;8.10;;
1577;SDS011;57623;53.608;10.004;2024-01-10T06:26:12;11.60;;;8.37;;
1577;SDS011;57623;53.608;10.004;2024-01-10T06:28:41;12.20;;;8.60;;
1577;SDS011;57623;53.608;10.004;2024-01-10T06:31:09;10.27;;;7.33;;
1577;SDS011;57623;53.608;10.004;2024-01-10T06:33:38;9.10;;;7.30;;
1577;SDS011;57623;53.608;10.004;2024-01-10T06:36:06;12.20;;;9.13;;
1577;SDS011;57623;53.608;10.004;2024-01-10T06:38:35;13.80;;;7.90;;
1577;SDS011;57623;53.608;10.004;2024-01-10T06:41:06;11.63;;;7.93;;
1577;SDS011;57623;53.608;10.004;2024-01-10T06:43:37;11.87;;;8.13;;
1577;SDS011;57623;53.608;10.004;2024-01-10T06:46:05;11.87;;;8.77;;
1577;SDS011;57623;53.608;10.004;2024-01-10T06:48:33;10.67;;;8.37;;
1577;SDS011;57623;53.608;10.004;2024-01-10T06:51:09;11.83;;;8.80;;
1577;SDS011;57623;53.608;10.004;2024-01-10T06:53:37;11.00;;;7.73;;
1577;SDS011;57623;53.608;10.004;2024-01-10T06:56:06;10.90;;;8.47;;
1577;SDS011;57623;53.608;10.004;2024-01-10T06:58:37;10.13;;;8.07;;
1577;SDS011;57623;53.608;10.004;2024-01-10T07:01:10;11.67;;;8.50;;
1577;SDS011;57623;53.608;10.004;2024-01-10T07:03:40;12.20;;;8.30;;
1577;SDS011;57623;53.608;10.004;2024-01-10T07:06:09;10.70;;;9.10;;
1577;SDS011;57623;53.608;10.004;2024-01-10T07:08:39;8.77;;;7.43;;
1577;SDS011;57623;53.608;10.004;2024-01-10T07:11:08;13.40;;;9.03;;
1577;SDS011;57623;53.608;10.004;2024-01-10T07:13:39;10.13;;;8.50;;
1577;SDS011;57623;53.608;10.004;2024-01-10T07:16:08;11.10;;;8.90;;
1577;SDS011;57623;53.608;10.004;2024-01-10T07:18:36;13.40;;;9.67;;
1577;SDS011;57623;53.608;10.004;2024-01-10T07:21:05;9.60;;;8.10;;
1577;SDS011;57623;53.608;10.004;2024-01-10T07:23:33;10.40;;;8.60;;
1577;SDS011;57623;53.608;10.004;2024-01-10T07:26:01;12.27;;;9.23;;
1577;SDS011;57623;53.608;10.004;2024-01-10T07:28:29;12.07;;;8.70;;
1577;SDS011;57623;53.608;10.004;2024-01-10T07:31:00;13.03;;;8.97;;
1577;SDS011;57623;53.608;10.004;2024-01-10T07:33:28;11.80;;;9.00;;
1577;SDS011;57623;53.608;10.004;2024-01-10T07:35:58;11.83;;;9.20;;
1577;SDS011;57623;53.608;10.004;2024-01-10T07:38:26;10.90;;;8.63;;
1577;SDS011;57623;53.608;10.004;2024-01-10T07:40:54;11.07;;;9.20;;
1577;SDS011;57623;53.608;10.004;2024-01-10T07:43:22;10.60;;;8.90;;
1577;SDS011;57623;53.608;10.004;2024-01-10T07:45:50;12.07;;;8.60;;
1577;SDS011;57623;53.608;10.004;2024-01-10T07:48:20;11.90;;;8.83;;
1577;SDS011;57623;53.608;10.004;2024-01-10T07:50:48;11.87;;;8.87;;
1577;SDS011;57623;53.608;10.004;2024-01-10T07:53:16;13.33;;;9.40;;
1577;SDS011;57623;53.608;10.004;2024-01-10T07:55:44;11.23;;;9.00;;
1577;SDS011;57623;53.608;10.004;2024-01-10T07:58:12;11.67;;;8.63;;
1577;SDS011;57623;53.608;10.004;2024-01-10T08:00:42;12.17;;;9.57;;
1577;SDS011;57623;53.608;10.004;2024-01-10T08:03:11;11.20;;;8.80;;
1577;SDS011;57623;53.608;10.004;2024-01-10T08:05:40;10.63;;;8.80;;
1577;SDS011;57623;53.608;10.004;2024-01-10T08:08:08;12.30;;;10.07;;
1577;SDS011;57623;53.608;10.004;2024-01-10T08:10:36;12.23;;;9.80;;
1577;SDS011;57623;53.608;10.004;2024-01-10T08:13:05;13.60;;;10.07;;
1577;SDS011;57623;53.608;10.004;2024-01-10T08:15:33;11.60;;;8.80;;
1577;SDS011;57623;53.608;10.004;2024-01-10T08:18:01;13.33;;;9.03;;
1577;SDS011;57623;53.608;10.004;2024-01-10T08:20:30;9.93;;;8.67;;
1577;SDS011;57623;53.608;10.004;2024-01-10T08:22:59;12.93;;;9.57;;
1577;SDS011;57623;53.608;10.004;2024-01-10T08:25:28;12.37;;;9.27;;
1577;SDS011;57623;53.608;10.004;2024-01-10T08:27:56;12.60;;;10.70;;
1577;SDS011;57623;53.608;10.004;2024-01-10T08:30:24;13.57;;;10.00;;
1577;SDS011;57623;53.608;10.004;2024-01-10T08:32:52;13.70;;;10.10;;
1577;SDS011;57623;53.608;10.004;2024-01-10T08:35:21;15.20;;;10.67;;
1577;SDS011;57623;53.608;10.004;2024-01-10T08:37:53;14.17;;;10.33;;
1577;SDS011;57623;53.608;10.004;2024-01-10T08:40:23;13.10;;;9.20;;
1577;SDS011;57623;53.608;10.004;2024-01-10T08:42:52;13.93;;;10.57;;
1577;SDS011;57623;53.608;10.004;2024-01-10T08:45:20;12.27;;;9.40;;
1577;SDS011;57623;53.608;10.004;2024-01-10T08:47:48;12.53;;;9.37;;
1577;SDS011;57623;53.608;10.004;2024-01-10T08:50:16;15.53;;;10.13;;
1577;SDS011;57623;53.608;10.004;2024-01-10T08:52:44;12.83;;;9.70;;
1577;SDS011;57623;53.608;10.004;2024-01-10T08:55:12;16.90;;;11.53;;
1577;SDS011;57623;53.608;10.004;2024-01-10T08:57:41;16.57;;;11.23;;
1577;SDS011;57623;53.608;10.004;2024-01-10T09:00:10;15.13;;;10.67;;
1577;SDS011;57623;53.608;10.004;2024-01-10T09:02:41;13.80;;;10.50;;
1577;SDS011;57623;53.608;10.004;2024-01-10T09:05:09;13.40;;;10.63;;
1577;SDS011;57623;53.608;10.004;2024-01-10T09:07:38;14.90;;;10.70;;
1577;SDS011;57623;53.608;10.004;2024-01-10T09:10:06;11.97;;;9.33;;
1577;SDS011;57623;53.608;10.004;2024-01-10T09:12:35;18.17;;;10.50;;
1577;SDS011;57623;53.608;10.004;2024-01-10T09:15:05;15.30;;;10.90;;
1577;SDS011;57623;53.608;10.004;2024-01-10T09:17:34;13.93;;;10.20;;
1577;SDS011;57623;53.608;10.004;2024-01-10T09:20:01;13.40;;;10.07;;
1577;SDS011;57623;53.608;10.004;2024-01-10T09:22:30;12.47;;;9.50;;
1577;SDS011;57623;53.608;10.004;2024-01-10T09:24:58;14.33;;;10.30;;
1577;SDS011;57623;53.608;10.004;2024-01-10T09:27:30;14.67;;;10.33;;
1577;SDS011;57623;53.608;10.004;2024-01-10T09:29:57;12.33;;;9.27;;
1577;SDS011;57623;53.608;10.004;2024-01-10T09:32:27;15.07;;;9.90;;
1577;SDS011;57623;53.608;10.004;2024-01-10T09:34:55;12.97;;;9.50;;
1577;SDS011;57623;53.608;10.004;2024-01-10T09:37:24;13.37;;;9.87;;
1577;SDS011;57623;53.608;10.004;2024-01-10T09:39:52;12.30;;;9.77;;
1577;SDS011;57623;53.608;10.004;2024-01-10T09:42:20;14.27;;;10.70;;
1577;SDS011;57623;53.608;10.004;2024-01-10T09:44:51;16.07;;;10.90;;
1577;SDS011;57623;53.608;10.004;2024-01-10T09:47:20;15.97;;;12.47;;
1577;SDS011;57623;53.608;10.004;2024-01-10T09:49:50;14.93;;;11.30;;
1577;SDS011;57623;53.608;10.004;2024-01-10T09:52:20;16.00;;;10.90;;
1577;SDS011;57623;53.608;10.004;2024-01-10T09:54:52;16.17;;;11.47;;
1577;SDS011;57623;53.608;10.004;2024-01-10T09:57:22;13.73;;;10.57;;
1577;SDS011;57623;53.608;10.004;2024-01-10T09:59:52;14.63;;;10.63;;
1577;SDS011;57623;53.608;10.004;2024-01-10T10:02:21;15.90;;;11.07;;
1577;SDS011;57623;53.608;10.004;2024-01-10T10:04:54;17.77;;;11.27;;
1577;SDS011;57623;53.608;10.004;2024-01-10T10:07:30;16.83;;;11.37;;
1577;SDS011;57623;53.608;10.004;2024-01-10T10:09:58;13.83;;;11.27;;
1577;SDS011;57623;53.608;10.004;2024-01-10T10:12:40;15.73;;;10.47;;
1577;SDS011;57623;53.608;10.004;2024-01-10T10:15:13;15.40;;;10.80;;
1577;SDS011;57623;53.608;10.004;2024-01-10T10:17:43;18.47;;;11.97;;
1577;SDS011;57623;53.608;10.004;2024-01-10T10:20:15;16.37;;;11.63;;
1577;SDS011;57623;53.608;10.004;2024-01-10T10:22:57;17.20;;;11.93;;
1577;SDS011;57623;53.608;10.004;2024-01-10T10:25:27;18.07;;;11.73;;
1577;SDS011;57623;53.608;10.004;2024-01-10T10:27:57;17.60;;;12.10;;
1577;SDS011;57623;53.608;10.004;2024-01-10T10:30:26;21.20;;;12.97;;
1577;SDS011;57623;53.608;10.004;2024-01-10T10:32:54;18.97;;;12.20;;
1577;SDS011;57623;53.608;10.004;2024-01-10T10:35:24;19.70;;;13.00;;
1577;SDS011;57623;53.608;10.004;2024-01-10T10:38:07;17.70;;;12.17;;
1577;SDS011;57623;53.608;10.004;2024-01-10T10:40:36;18.50;;;12.87;;
1577;SDS011;57623;53.608;10.004;2024-01-10T10:43:05;20.77;;;13.27;;
1577;SDS011;57623;53.608;10.004;2024-01-10T10:45:37;17.47;;;12.20;;
1577;SDS011;57623;53.608;10.004;2024-01-10T10:48:06;17.47;;;12.40;;
1577;SDS011;57623;53.608;10.004;2024-01-10T10:50:38;16.53;;;11.83;;
1577;SDS011;57623;53.608;10.004;2024-01-10T10:53:06;13.57;;;10.67;;
1577;SDS011;57623;53.608;10.004;2024-01-10T10:55:35;13.97;;;10.60;;
1577;SDS011;57623;53.608;10.004;2024-01-10T10:58:05;12.67;;;10.20;;
1577;SDS011;57623;53.608;10.004;2024-01-10T11:00:37;15.10;;;10.57;;
1577;SDS011;57623;53.608;10.004;2024-01-10T11:03:08;12.57;;;9.33;;
1577;SDS011;57623;53.608;10.004;2024-01-10T11:05:40;13.50;;;9.80;;
1577;SDS011;57623;53.608;10.004;2024-01-10T11:08:09;14.10;;;9.70;;
1577;SDS011;57623;53.608;10.004;2024-01-10T11:10:42;11.30;;;9.40;;
1577;SDS011;57623;53.608;10.004;2024-01-10T11:13:18;10.83;;;8.10;;
1577;SDS011;57623;53.608;10.004;2024-01-10T11:16:09;11.60;;;8.60;;
1577;SDS011;57623;53.608;10.004;2024-01-10T11:19:04;10.27;;;8.47;;
1577;SDS011;57623;53.608;10.004;2024-01-10T11:21:55;10.77;;;9.30;;
1577;SDS011;57623;53.608;10.004;2024-01-10T11:24:34;12.90;;;9.50;;
1577;SDS011;57623;53.608;10.004;2024-01-10T11:27:10;11.17;;;9.00;;
1577;SDS011;57623;53.608;10.004;2024-01-10T11:29:39;12.60;;;9.40;;
1577;SDS011;57623;53.608;10.004;2024-01-10T11:32:12;12.53;;;8.90;;
1577;SDS011;57623;53.608;10.004;2024-01-10T11:34:54;10.70;;;8.50;;
1577;SDS011;57623;53.608;10.004;2024-01-10T11:37:24;10.97;;;8.70;;
1577;SDS011;57623;53.608;10.004;2024-01-10T11:40:06;9.40;;;7.77;;
1577;SDS011;57623;53.608;10.004;2024-01-10T11:42:40;9.23;;;7.90;;
1577;SDS011;57623;53.608;10.004;2024-01-10T11:45:09;10.10;;;8.23;;
1577;SDS011;57623;53.608;10.004;2024-01-10T11:47:38;9.23;;;7.23;;
1577;SDS011;57623;53.608;10.004;2024-01-10T11:50:07;10.93;;;8.17;;
1577;SDS011;57623;53.608;10.004;2024-01-10T11:52:37;10.07;;;8.40;;
1577;SDS011;57623;53.608;10.004;2024-01-10T11:55:06;11.30;;;8.57;;
1577;SDS011;57623;53.608;10.004;2024-01-10T11:57:34;12.23;;;8.50;;
1577;SDS011;57623;53.608;10.004;2024-01-10T12:00:04;10.97;;;8.77;;
1577;SDS011;57623;53.608;10.004;2024-01-10T12:02:34;10.43;;;8.13;;
1577;SDS011;57623;53.608;10.004;2024-01-10T12:05:03;9.57;;;7.53;;
1577;SDS011;57623;53.608;10.004;2024-01-10T12:07:33;9.13;;;8.00;;
1577;SDS011;57623;53.608;10.004;2024-01-10T12:10:03;8.73;;;6.50;;
1577;SDS011;57623;53.608;10.004;2024-01-10T12:12:31;8.43;;;6.20;;
1577;SDS011;57623;53.608;10.004;2024-01-10T12:14:59;9.80;;;6.90;;
1577;SDS011;57623;53.608;10.004;2024-01-10T12:17:27;8.10;;;6.20;;
1577;SDS011;57623;53.608;10.004;2024-01-10T12:19:56;8.27;;;6.30;;
1577;SDS011;57623;53.608;10.004;2024-01-10T12:22:24;7.50;;;6.30;;
1577;SDS011;57623;53.608;10.004;2024-01-10T12:24:52;7.77;;;6.37;;
1577;SDS011;57623;53.608;10.004;2024-01-10T12:27:20;9.80;;;7.03;;
1577;SDS011;57623;53.608;10.004;2024-01-10T12:29:50;8.67;;;7.00;;
1577;SDS011;57623;53.608;10.004;2024-01-10T12:32:20;8.07;;;6.40;;
1577;SDS011;57623;53.608;10.004;2024-01-10T12:34:54;9.00;;;6.83;;
1577;SDS011;57623;53.608;10.004;2024-01-10T12:37:25;6.93;;;5.90;;
1577;SDS011;57623;53.608;10.004;2024-01-10T12:39:53;8.50;;;6.80;;
1577;SDS011;57623;53.608;10.004;2024-01-10T12:42:23;8.40;;;6.50;;
1577;SDS011;57623;53.608;10.004;2024-01-10T12:44:52;10.10;;;7.37;;
1577;SDS011;57623;53.608;10.004;2024-01-10T12:47:21;9.77;;;6.77;;
1577;SDS011;57623;53.608;10.004;2024-01-10T12:49:51;7.73;;;6.73;;
1577;SDS011;57623;53.608;10.004;2024-01-10T12:52:20;11.90;;;7.10;;
1577;SDS011;57623;53.608;10.004;2024-01-10T12:54:50;9.10;;;6.60;;
1577;SDS011;57623;53.608;10.004;2024-01-10T12:57:18;9.50;;;6.93;;
1577;SDS011;57623;53.608;10.004;2024-01-10T12:59:48;9.63;;;6.97;;
1577;SDS011;57623;53.608;10.004;2024-01-10T13:02:16;8.40;;;6.57;;
1577;SDS011;57623;53.608;10.004;2024-01-10T13:04:45;9.57;;;7.37;;
1577;SDS011;57623;53.608;10.004;2024-01-10T13:07:13;12.27;;;8.33;;
1577;SDS011;57623;53.608;10.004;2024-01-10T13:09:42;9.70;;;6.97;;
1577;SDS011;57623;53.608;10.004;2024-01-10T13:12:09;10.90;;;6.77;;
1577;SDS011;57623;53.608;10.004;2024-01-10T13:14:37;7.80;;;6.53;;
1577;SDS011;57623;53.608;10.004;2024-01-10T13:17:07;14.03;;;6.53;;
1577;SDS011;57623;53.608;10.004;2024-01-10T13:19:38;8.70;;;6.90;;
1577;SDS011;57623;53.608;10.004;2024-01-10T13:22:06;8.67;;;6.33;;
1577;SDS011;57623;53.608;10.004;2024-01-10T13:24:35;8.93;;;7.50;;
1577;SDS011;57623;53.608;10.004;2024-01-10T13:27:04;9.60;;;7.77;;
1577;SDS011;57623;53.608;10.004;2024-01-10T13:29:32;8.80;;;7.00;;
1577;SDS011;57623;53.608;10.004;2024-01-10T13:32:01;9.43;;;8.13;;
1577;SDS011;57623;53.608;10.004;2024-01-10T13:34:31;11.77;;;7.10;;
1577;SDS011;57623;53.608;10.004;2024-01-10T13:36:59;8.90;;;7.00;;
1577;SDS011;57623;53.608;10.004;2024-01-10T13:39:28;9.43;;;6.90;;
1577;SDS011;57623;53.608;10.004;2024-01-10T13:41:56;9.30;;;7.47;;
1577;SDS011;57623;53.608;10.004;2024-01-10T13:44:24;10.80;;;7.83;;
1577;SDS011;57623;53.608;10.004;2024-01-10T13:46:52;9.70;;;7.70;;
1577;SDS011;57623;53.608;10.004;2024-01-10T13:49:20;8.87;;;7.80;;
1577;SDS011;57623;53.608;10.004;2024-01-10T13:51:50;9.70;;;7.30;;
1577;SDS011;57623;53.608;10.004;2024-01-10T13:54:18;9.70;;;7.53;;
1577;SDS011;57623;53.608;10.004;2024-01-10T13:56:47;10.37;;;8.17;;
1577;SDS011;57623;53.608;10.004;2024-01-10T13:59:15;9.93;;;7.90;;
1577;SDS011;57623;53.608;10.004;2024-01-10T14:01:44;13.00;;;8.73;;
1577;SDS011;57623;53.608;10.004;2024-01-10T14:04:12;9.47;;;7.43;;
1577;SDS011;57623;53.608;10.004;2024-01-10T14:06:40;9.80;;;7.90;;
1577;SDS011;57623;53.608;10.004;2024-01-10T14:09:09;11.10;;;8.00;;
1577;SDS011;57623;53.608;10.004;2024-01-10T14:11:37;11.40;;;9.33;;
1577;SDS011;57623;53.608;10.004;2024-01-10T14:14:05;11.23;;;9.33;;
1577;SDS011;57623;53.608;10.004;2024-01-10T14:16:33;11.10;;;9.10;;
1577;SDS011;57623;53.608;10.004;2024-01-10T14:19:02;10.60;;;8.87;;
1577;SDS011;57623;53.608;10.004;2024-01-10T14:21:30;12.13;;;8.63;;
1577;SDS011;57623;53.608;10.004;2024-01-10T14:23:58;10.67;;;7.93;;
1577;SDS011;57623;53.608;10.004;2024-01-10T14:26:28;10.57;;;8.20;;
1577;SDS011;57623;53.608;10.004;2024-01-10T14:28:56;10.53;;;9.30;;
1577;SDS011;57623;53.608;10.004;2024-01-10T14:31:25;10.20;;;8.60;;
1577;SDS011;57623;53.608;10.004;2024-01-10T14:34:13;12.63;;;9.63;;
1577;SDS011;57623;53.608;10.004;2024-01-10T14:36:42;12.53;;;8.80;;
1577;SDS011;57623;53.608;10.004;2024-01-10T14:39:10;10.47;;;8.70;;
1577;SDS011;57623;53.608;10.004;2024-01-10T14:41:40;10.97;;;8.70;;
1577;SDS011;57623;53.608;10.004;2024-01-10T14:44:09;12.17;;;9.57;;